Time;durP1;ratioP1;P1;durP2;ratioP2;P2;SDS_P1;SDS_P2;PMS_P1;PMS_P2;Temp;Humidity;BMP_temperature;BMP_pressure;BME280_temperature;BME280_humidity;BME280_pressure;Samples;Min_cycle;Max_cycle;Signal;HPM_P1;HPM_P2
2021/12/18 00:00:02;;;;;;;18.17;16.47;;;12.30;67.10;;;;;;5127814;27;20442;-43
2021/12/18 00:02:28;;;;;;;18.43;16.73;;;11.80;67.30;;;;;;5128547;27;20428;-44
2021/12/18 00:04:53;;;;;;;18.20;16.50;;;11.40;68.00;;;;;;5127265;27;20437;-44
2021/12/18 00:07:19;;;;;;;19.67;17.80;;;11.00;68.80;;;;;;5128519;27;20483;-44
2021/12/18 00:09:46;;;;;;;19.67;17.87;;;10.70;69.30;;;;;;5128111;27;20184;-44
2021/12/18 00:12:12;;;;;;;19.87;18.00;;;10.40;69.80;;;;;;5126097;27;20279;-43
2021/12/18 00:14:37;;;;;;;18.17;16.47;;;10.10;70.50;;;;;;5127410;27;20921;-43
2021/12/18 00:17:04;;;;;;;19.07;17.17;;;9.90;72.80;;;;;;5126034;27;20240;-43
2021/12/18 00:19:30;;;;;;;17.37;15.60;;;9.70;73.50;;;;;;5124466;27;21276;-44
2021/12/18 00:21:55;;;;;;;16.83;15.17;;;9.60;74.10;;;;;;5124691;27;20509;-44
2021/12/18 00:24:21;;;;;;;16.83;15.23;;;9.50;74.60;;;;;;5125785;27;20231;-43
2021/12/18 00:26:47;;;;;;;19.07;17.13;;;9.40;74.90;;;;;;5126079;27;20235;-44
2021/12/18 00:29:13;;;;;;;18.50;16.57;;;9.30;75.10;;;;;;5124820;27;20214;-44
2021/12/18 00:31:39;;;;;;;19.33;17.40;;;9.20;75.40;;;;;;5127014;27;20286;-44
2021/12/18 00:34:06;;;;;;;18.50;16.53;;;9.10;75.70;;;;;;5127520;27;20454;-43
2021/12/18 00:36:32;;;;;;;18.90;16.97;;;8.90;76.10;;;;;;5125764;27;20832;-44
2021/12/18 00:38:58;;;;;;;18.27;16.50;;;8.80;76.50;;;;;;5127470;27;20188;-44
2021/12/18 00:44:02;;;;;;;19.10;17.13;;;8.60;77.40;;;;;;5125446;27;20451;-43
2021/12/18 00:46:33;;;;;;;16.83;15.23;;;8.60;77.80;;;;;;5125951;27;20417;-43
2021/12/18 00:49:02;;;;;;;18.70;16.80;;;8.60;78.10;;;;;;5125695;27;20441;-43
2021/12/18 00:51:28;;;;;;;17.70;16.00;;;8.50;78.30;;;;;;5107301;27;20468;-42
2021/12/18 00:53:53;;;;;;;18.50;16.70;;;8.50;78.50;;;;;;5127170;27;20439;-43
2021/12/18 00:56:19;;;;;;;18.03;16.23;;;8.50;78.60;;;;;;5107546;27;20259;-44
2021/12/18 00:58:47;;;;;;;17.27;15.47;;;8.50;78.70;;;;;;5124366;27;20179;-44
2021/12/18 01:01:15;;;;;;;18.33;16.53;;;8.40;78.80;;;;;;5126236;27;20420;-44
2021/12/18 01:03:42;;;;;;;19.13;17.20;;;8.40;78.90;;;;;;5124776;27;20533;-44
2021/12/18 01:06:08;;;;;;;19.93;17.80;;;8.30;79.00;;;;;;5124244;27;20417;-44
2021/12/18 01:08:40;;;;;;;18.73;16.93;;;8.30;79.30;;;;;;5125632;27;20432;-44
2021/12/18 01:11:31;;;;;;;19.10;17.07;;;8.20;79.50;;;;;;5125477;27;20711;-44
2021/12/18 01:22:41;;;;;;;20.33;18.23;;;8.10;80.00;;;;;;5127457;27;20393;-44
2021/12/18 01:25:09;;;;;;;20.23;18.17;;;8.00;80.60;;;;;;5111036;28;20461;-43
2021/12/18 01:27:35;;;;;;;18.57;16.67;;;8.00;80.90;;;;;;5124778;27;20429;-44
2021/12/18 01:30:05;;;;;;;20.53;18.07;;;8.00;81.10;;;;;;5126426;28;20706;-44
2021/12/18 01:32:30;;;;;;;20.03;17.93;;;7.90;81.00;;;;;;5103693;28;20495;-44
2021/12/18 01:34:59;;;;;;;20.17;18.03;;;7.80;81.10;;;;;;5115935;28;20446;-44
2021/12/18 01:37:26;;;;;;;20.67;17.43;;;7.70;81.20;;;;;;5116511;28;20450;-44
2021/12/18 01:39:53;;;;;;;19.73;17.63;;;7.70;81.60;;;;;;5116010;28;20461;-43
2021/12/18 01:52:53;;;;;;;18.90;16.17;;;7.50;82.70;;;;;;5115609;28;20743;-44
2021/12/18 01:55:44;;;;;;;17.83;15.90;;;7.50;82.90;;;;;;5115737;28;20429;-44
2021/12/18 01:58:10;;;;;;;19.53;17.50;;;7.50;82.90;;;;;;5114064;28;20429;-44
2021/12/18 02:00:43;;;;;;;20.60;18.40;;;7.50;82.90;;;;;;5115773;28;20426;-44
2021/12/18 02:03:09;;;;;;;19.80;17.80;;;7.40;82.80;;;;;;5116653;28;20420;-44
2021/12/18 02:05:35;;;;;;;19.60;17.60;;;7.40;82.90;;;;;;5117815;28;20421;-43
2021/12/18 02:08:00;;;;;;;21.97;19.40;;;7.40;83.00;;;;;;5117330;28;20414;-44
2021/12/18 02:10:30;;;;;;;19.80;17.70;;;7.40;83.10;;;;;;5121282;28;20526;-44
2021/12/18 02:13:07;;;;;;;19.77;17.67;;;7.40;83.20;;;;;;5121098;28;20605;-44
2021/12/18 02:21:07;;;;;;;19.57;17.57;;;7.30;83.30;;;;;;5120666;28;20448;-43
2021/12/18 02:23:34;;;;;;;19.07;17.00;;;7.30;83.30;;;;;;5120749;28;20462;-43
2021/12/18 02:26:00;;;;;;;19.00;16.10;;;7.30;83.20;;;;;;5120820;28;20441;-43
2021/12/18 02:28:27;;;;;;;18.67;16.77;;;7.30;83.20;;;;;;5103526;28;20483;-44
2021/12/18 02:30:54;;;;;;;19.67;17.10;;;7.30;83.30;;;;;;5121039;28;20251;-43
2021/12/18 02:33:21;;;;;;;19.57;17.30;;;7.20;83.30;;;;;;5121352;28;20825;-44
2021/12/18 02:35:49;;;;;;;19.40;17.00;;;7.20;83.40;;;;;;5121210;28;20420;-44
2021/12/18 02:38:20;;;;;;;18.27;16.37;;;7.10;83.40;;;;;;5120760;28;20422;-44
2021/12/18 02:41:09;;;;;;;19.90;17.83;;;7.10;83.60;;;;;;5121634;28;20410;-44
2021/12/18 02:43:38;;;;;;;18.43;16.40;;;7.10;83.70;;;;;;5120881;28;20415;-43
2021/12/18 02:46:08;;;;;;;19.03;17.03;;;7.10;83.70;;;;;;5121013;28;20449;-43
2021/12/18 02:48:39;;;;;;;20.13;18.03;;;7.10;83.80;;;;;;5102953;28;20860;-44
2021/12/18 02:51:07;;;;;;;19.53;17.40;;;7.10;83.90;;;;;;5120912;28;20402;-44
2021/12/18 02:53:34;;;;;;;20.20;18.10;;;7.10;84.60;;;;;;5128681;27;20850;-44
2021/12/18 02:56:03;;;;;;;19.60;17.50;;;7.10;83.90;;;;;;5141181;27;20428;-44
2021/12/18 02:58:29;;;;;;;20.47;18.30;;;7.00;83.90;;;;;;5141464;27;20413;-44
2021/12/18 03:00:57;;;;;;;20.57;18.40;;;7.10;84.70;;;;;;5141474;27;20409;-43
2021/12/18 03:03:27;;;;;;;21.57;18.40;;;7.00;84.00;;;;;;5141245;27;20212;-43
2021/12/18 03:06:13;;;;;;;19.73;17.53;;;7.00;84.00;;;;;;5140492;27;20441;-44
2021/12/18 03:09:01;;;;;;;20.00;17.90;;;7.00;84.20;;;;;;5120621;28;20482;-44
2021/12/18 03:27:19;;;;;;;21.10;18.80;;;6.90;84.50;;;;;;5136413;27;20347;-43
2021/12/18 03:29:45;;;;;;;20.53;17.87;;;6.90;84.60;;;;;;5140852;27;20907;-44
2021/12/18 03:32:11;;;;;;;23.13;18.50;;;6.90;84.70;;;;;;5140346;27;20464;-44
2021/12/18 03:34:36;;;;;;;19.83;17.73;;;6.80;84.70;;;;;;5140808;27;20270;-44
2021/12/18 03:37:03;;;;;;;21.67;17.47;;;6.80;84.80;;;;;;5140415;27;20179;-43
2021/12/18 03:39:28;;;;;;;21.27;18.90;;;6.80;84.80;;;;;;5140875;27;20172;-44
2021/12/18 03:41:57;;;;;;;22.70;18.50;;;6.80;84.90;;;;;;5140769;27;20555;-43
2021/12/18 03:44:22;;;;;;;22.10;18.57;;;6.70;84.90;;;;;;5122090;27;20218;-43
2021/12/18 03:46:48;;;;;;;21.50;18.07;;;6.70;85.00;;;;;;5122316;27;20445;-44
2021/12/18 03:49:14;;;;;;;22.90;18.37;;;6.70;84.90;;;;;;5140326;27;20210;-44
2021/12/18 03:51:40;;;;;;;21.33;18.33;;;6.70;84.90;;;;;;5121858;27;20511;-44
2021/12/18 03:54:06;;;;;;;22.20;18.80;;;6.60;84.90;;;;;;5140079;27;20420;-44
2021/12/18 03:56:34;;;;;;;21.63;18.37;;;6.60;85.10;;;;;;5140181;27;20648;-43
2021/12/18 03:59:00;;;;;;;23.90;19.37;;;6.50;85.10;;;;;;5140133;27;20442;-43
2021/12/18 04:01:26;;;;;;;27.70;20.70;;;6.50;85.40;;;;;;5139850;27;20574;-44
2021/12/18 04:03:52;;;;;;;24.67;18.90;;;6.50;85.60;;;;;;5140283;27;20838;-43
2021/12/18 04:06:20;;;;;;;23.83;19.90;;;6.50;85.70;;;;;;5139928;27;20437;-44
2021/12/18 04:08:48;;;;;;;25.30;19.77;;;6.40;85.90;;;;;;5140011;27;20275;-44
2021/12/18 04:11:14;;;;;;;26.83;20.47;;;6.40;86.10;;;;;;5139195;27;20511;-44
2021/12/18 04:13:44;;;;;;;24.43;19.97;;;6.40;86.40;;;;;;5140349;27;20496;-43
2021/12/18 04:16:10;;;;;;;24.40;19.17;;;6.40;86.50;;;;;;5139646;27;20240;-43
2021/12/18 04:18:36;;;;;;;27.50;20.47;;;6.30;86.60;;;;;;5139466;27;20432;-43
2021/12/18 04:21:02;;;;;;;24.17;19.60;;;6.40;86.70;;;;;;5139515;27;20467;-44
2021/12/18 04:23:27;;;;;;;25.73;20.20;;;6.40;86.80;;;;;;5139110;27;20623;-44
2021/12/18 04:25:56;;;;;;;23.47;17.67;;;6.40;86.80;;;;;;5139333;27;20199;-44
2021/12/18 04:28:22;;;;;;;27.70;21.20;;;6.40;86.70;;;;;;5139885;27;20183;-43
2021/12/18 04:30:48;;;;;;;22.50;17.60;;;6.40;86.70;;;;;;5138865;27;20420;-43
2021/12/18 04:33:14;;;;;;;25.97;19.40;;;6.40;86.70;;;;;;5139199;27;20475;-44
2021/12/18 04:35:40;;;;;;;26.30;18.77;;;6.30;86.70;;;;;;5121401;27;20184;-43
2021/12/18 04:38:05;;;;;;;25.50;19.40;;;6.30;86.70;;;;;;5139508;27;20690;-44
2021/12/18 04:40:31;;;;;;;26.47;21.30;;;6.30;86.80;;;;;;5139166;27;20443;-43
2021/12/18 04:42:57;;;;;;;24.00;18.60;;;6.30;86.80;;;;;;5137909;27;20207;-44
2021/12/18 04:45:24;;;;;;;24.00;19.20;;;6.30;86.80;;;;;;5136310;27;20484;-44
2021/12/18 04:47:51;;;;;;;24.30;20.33;;;6.30;86.80;;;;;;5117147;28;20555;-44
2021/12/18 04:50:17;;;;;;;23.90;19.00;;;6.20;86.60;;;;;;5116383;28;20846;-44
2021/12/18 04:52:43;;;;;;;23.70;19.37;;;6.20;86.60;;;;;;5118502;27;20458;-43
2021/12/18 04:55:09;;;;;;;26.43;19.27;;;6.20;86.70;;;;;;5138085;27;20186;-44
2021/12/18 04:57:34;;;;;;;22.73;17.60;;;6.10;86.70;;;;;;5138217;27;20246;-43
2021/12/18 05:00:00;;;;;;;24.30;19.03;;;6.10;86.80;;;;;;5138441;27;20424;-44
2021/12/18 05:02:39;;;;;;;24.63;18.57;;;6.00;86.90;;;;;;5139333;27;20213;-44
2021/12/18 05:05:08;;;;;;;23.33;18.87;;;6.00;87.10;;;;;;5139004;27;20436;-46
2021/12/18 05:07:34;;;;;;;24.77;19.27;;;6.00;87.10;;;;;;5139361;27;20420;-46
2021/12/18 05:09:59;;;;;;;24.17;18.10;;;6.10;87.20;;;;;;5138625;27;20462;-46
2021/12/18 05:12:25;;;;;;;20.13;16.07;;;6.10;87.10;;;;;;5138288;27;20306;-46
2021/12/18 05:14:51;;;;;;;24.70;18.10;;;6.10;87.10;;;;;;5138552;27;20199;-46
2021/12/18 05:17:16;;;;;;;20.70;16.40;;;6.10;86.90;;;;;;5120690;27;20514;-46
2021/12/18 05:19:43;;;;;;;23.40;16.23;;;6.10;86.80;;;;;;5138607;27;20215;-46
2021/12/18 05:22:08;;;;;;;18.37;14.47;;;6.20;86.90;;;;;;5139233;27;20228;-46
2021/12/18 05:24:34;;;;;;;19.40;15.73;;;6.10;86.70;;;;;;5138625;27;20484;-46
2021/12/18 05:27:02;;;;;;;22.90;17.40;;;6.10;86.50;;;;;;5138533;27;20171;-46
2021/12/18 05:29:27;;;;;;;21.43;15.37;;;6.10;86.40;;;;;;5138695;27;20179;-46
2021/12/18 05:31:53;;;;;;;18.50;13.97;;;6.10;86.50;;;;;;5138475;27;20498;-49
2021/12/18 05:34:24;;;;;;;23.17;14.77;;;6.10;86.40;;;;;;5139020;27;20508;-46
2021/12/18 05:39:23;;;;;;;23.00;16.07;;;6.10;86.50;;;;;;5138166;27;20447;-46
2021/12/18 05:41:50;;;;;;;22.33;16.13;;;6.10;86.50;;;;;;5138363;27;20842;-46
2021/12/18 05:44:21;;;;;;;22.03;16.70;;;6.10;86.50;;;;;;5140628;27;20421;-46
2021/12/18 05:46:47;;;;;;;18.20;15.43;;;6.10;86.40;;;;;;5142968;27;20420;-47
2021/12/18 05:49:13;;;;;;;21.63;16.33;;;6.10;86.50;;;;;;5142537;27;20441;-47
2021/12/18 05:51:39;;;;;;;20.77;15.37;;;6.10;86.40;;;;;;5142746;27;20483;-46
2021/12/18 05:54:06;;;;;;;21.90;16.27;;;6.10;86.30;;;;;;5142600;27;20424;-47
2021/12/18 05:56:31;;;;;;;23.43;16.77;;;6.00;86.20;;;;;;5142758;27;20406;-46
2021/12/18 05:58:58;;;;;;;21.30;16.00;;;6.00;86.20;;;;;;5142713;27;20416;-46
2021/12/18 06:01:25;;;;;;;23.83;17.23;;;6.00;86.30;;;;;;5142483;27;20466;-46
2021/12/18 06:03:50;;;;;;;20.90;15.30;;;6.00;86.30;;;;;;5142280;27;20471;-46
2021/12/18 06:06:16;;;;;;;20.70;15.50;;;6.00;86.50;;;;;;5141208;27;20429;-46
2021/12/18 06:08:42;;;;;;;21.10;15.80;;;6.00;86.50;;;;;;5141160;27;20186;-46
2021/12/18 06:11:15;;;;;;;22.07;15.90;;;6.00;86.50;;;;;;5141320;27;20573;-46
2021/12/18 06:13:41;;;;;;;19.10;14.63;;;5.90;86.40;;;;;;5141806;27;20193;-46
2021/12/18 06:16:07;;;;;;;22.77;17.10;;;5.90;86.50;;;;;;5141248;27;20804;-46
2021/12/18 06:18:40;;;;;;;21.63;16.90;;;5.90;86.50;;;;;;5141814;27;20451;-47
2021/12/18 06:21:06;;;;;;;20.00;14.97;;;5.80;86.50;;;;;;5142146;27;20412;-46
2021/12/18 06:23:31;;;;;;;19.50;15.10;;;5.80;86.60;;;;;;5141636;27;20559;-46
2021/12/18 06:25:58;;;;;;;21.80;16.43;;;5.80;86.80;;;;;;5123425;27;20518;-46
2021/12/18 06:28:23;;;;;;;20.40;15.40;;;5.80;86.80;;;;;;5141531;27;20163;-46
2021/12/18 06:30:49;;;;;;;22.37;15.90;;;5.80;86.80;;;;;;5140718;27;20480;-47
2021/12/18 06:33:16;;;;;;;20.30;16.30;;;5.70;86.90;;;;;;5141271;27;20203;-47
2021/12/18 06:35:41;;;;;;;21.20;16.50;;;5.70;87.10;;;;;;5140463;27;20429;-47
2021/12/18 06:38:07;;;;;;;19.00;15.10;;;5.70;87.20;;;;;;5140333;27;20810;-47
2021/12/18 06:40:33;;;;;;;21.47;16.27;;;5.70;87.30;;;;;;5140066;27;20176;-47
2021/12/18 06:42:59;;;;;;;21.67;16.53;;;5.70;87.30;;;;;;5140199;27;20264;-48
2021/12/18 06:45:25;;;;;;;19.70;15.77;;;5.70;87.40;;;;;;5139434;27;20822;-47
2021/12/18 06:47:51;;;;;;;21.20;15.23;;;5.70;88.10;;;;;;5139093;27;20420;-47
2021/12/18 06:50:17;;;;;;;20.80;16.63;;;5.70;87.40;;;;;;5140204;27;20440;-47
2021/12/18 06:52:42;;;;;;;22.73;16.67;;;5.70;87.50;;;;;;5140089;27;21010;-48
2021/12/18 06:55:08;;;;;;;19.80;15.67;;;5.70;87.60;;;;;;5121660;27;20208;-48
2021/12/18 06:57:34;;;;;;;20.93;16.10;;;5.70;87.70;;;;;;5140710;27;20267;-47
2021/12/18 07:00:00;;;;;;;22.53;16.10;;;5.70;87.80;;;;;;5139824;27;20909;-47
2021/12/18 07:02:26;;;;;;;20.50;15.17;;;5.70;87.80;;;;;;5102958;27;20179;-47
2021/12/18 07:04:52;;;;;;;23.73;16.73;;;5.70;87.80;;;;;;5138322;27;20187;-47
2021/12/18 07:07:18;;;;;;;21.73;14.90;;;5.60;87.90;;;;;;5138607;27;20551;-47
2021/12/18 07:09:44;;;;;;;20.03;15.57;;;5.60;87.90;;;;;;5120028;27;20620;-46
2021/12/18 07:12:13;;;;;;;23.07;16.20;;;5.60;88.00;;;;;;5119583;27;20468;-47
2021/12/18 07:14:38;;;;;;;20.63;14.70;;;5.60;88.10;;;;;;5139837;27;20759;-47
2021/12/18 07:17:04;;;;;;;21.50;15.60;;;5.60;88.20;;;;;;5121562;27;20430;-47
2021/12/18 07:19:30;;;;;;;19.00;13.60;;;5.60;88.20;;;;;;5138598;27;20207;-47
2021/12/18 07:21:56;;;;;;;21.30;15.37;;;5.70;88.30;;;;;;5138096;27;20885;-47
2021/12/18 07:24:21;;;;;;;21.93;15.43;;;5.60;88.10;;;;;;5137424;27;20502;-47
2021/12/18 07:26:47;;;;;;;19.63;15.13;;;5.70;88.10;;;;;;5138206;27;20206;-47
2021/12/18 07:29:13;;;;;;;16.93;12.70;;;5.60;87.90;;;;;;5137695;27;20646;-47
2021/12/18 07:31:39;;;;;;;18.93;13.53;;;5.60;87.90;;;;;;5138324;27;20276;-47
2021/12/18 07:34:05;;;;;;;17.20;13.30;;;5.60;87.90;;;;;;5138854;27;20179;-47
2021/12/18 07:36:30;;;;;;;18.90;14.37;;;5.60;87.90;;;;;;5121305;27;20541;-47
2021/12/18 07:38:56;;;;;;;22.43;15.70;;;5.60;87.90;;;;;;5120753;27;20657;-47
2021/12/18 07:41:21;;;;;;;17.60;13.50;;;5.60;87.90;;;;;;5138474;27;20276;-47
2021/12/18 07:43:47;;;;;;;18.97;14.33;;;5.60;87.90;;;;;;5138465;27;20787;-47
2021/12/18 07:46:13;;;;;;;16.50;13.33;;;5.60;87.90;;;;;;5137426;27;20452;-47
2021/12/18 07:48:38;;;;;;;16.20;12.80;;;5.60;87.90;;;;;;5138526;27;20271;-47
2021/12/18 07:51:04;;;;;;;21.53;14.50;;;5.60;87.90;;;;;;5138756;27;20167;-47
2021/12/18 07:53:30;;;;;;;19.07;13.27;;;5.70;87.90;;;;;;5138152;27;20217;-47
2021/12/18 07:55:55;;;;;;;19.37;15.03;;;5.70;87.90;;;;;;5120489;27;20232;-47
2021/12/18 07:58:21;;;;;;;18.77;13.80;;;5.70;87.90;;;;;;5139058;27;20204;-47
2021/12/18 08:00:47;;;;;;;20.33;15.50;;;5.70;87.90;;;;;;5139238;27;20175;-47
2021/12/18 08:03:12;;;;;;;22.60;14.00;;;5.70;88.00;;;;;;5139319;27;20324;-47
2021/12/18 08:05:38;;;;;;;17.27;13.57;;;5.70;88.00;;;;;;5137963;27;20299;-47
2021/12/18 08:08:04;;;;;;;19.10;13.87;;;5.70;88.00;;;;;;5137809;27;20273;-48
2021/12/18 08:10:30;;;;;;;17.60;13.47;;;5.70;88.00;;;;;;5138109;27;20566;-47
2021/12/18 08:12:55;;;;;;;17.93;13.60;;;5.80;88.00;;;;;;5137104;27;21114;-47
2021/12/18 08:15:21;;;;;;;22.20;15.77;;;5.80;87.90;;;;;;5119359;27;20198;-48
2021/12/18 08:17:47;;;;;;;17.67;13.93;;;5.80;87.90;;;;;;5119459;27;20171;-47
2021/12/18 08:20:13;;;;;;;18.60;14.60;;;5.80;88.00;;;;;;5137555;27;20558;-47
2021/12/18 08:22:38;;;;;;;16.90;13.13;;;5.80;88.00;;;;;;5137804;27;20240;-48
2021/12/18 08:25:07;;;;;;;17.67;13.60;;;5.80;88.00;;;;;;5137395;27;20808;-47
2021/12/18 08:27:33;;;;;;;17.47;12.77;;;5.80;88.00;;;;;;5118600;27;20243;-47
2021/12/18 08:30:01;;;;;;;16.00;13.10;;;5.80;88.00;;;;;;5135927;27;20910;-48
2021/12/18 08:32:27;;;;;;;16.30;11.57;;;5.90;87.90;;;;;;5136829;27;20210;-47
2021/12/18 08:34:53;;;;;;;15.43;12.53;;;5.90;87.90;;;;;;5136042;27;20866;-47
2021/12/18 08:37:20;;;;;;;16.70;12.80;;;5.90;87.80;;;;;;5136760;27;20196;-47
2021/12/18 08:39:49;;;;;;;17.87;13.20;;;6.00;87.80;;;;;;5118853;27;20183;-47
2021/12/18 08:42:17;;;;;;;14.73;11.90;;;6.00;87.80;;;;;;5118660;27;20433;-47
2021/12/18 08:44:46;;;;;;;17.20;14.00;;;6.10;87.80;;;;;;5123241;27;20444;-47
2021/12/18 08:47:12;;;;;;;15.30;12.90;;;6.10;87.70;;;;;;5135987;27;20607;-47
2021/12/18 08:49:40;;;;;;;15.20;11.80;;;6.10;87.70;;;;;;5136218;27;20425;-47
2021/12/18 08:52:06;;;;;;;17.50;13.20;;;6.10;87.70;;;;;;5119201;27;20469;-47
2021/12/18 08:54:31;;;;;;;18.17;12.77;;;6.10;87.60;;;;;;5136382;27;20440;-48
2021/12/18 08:56:57;;;;;;;14.70;11.57;;;6.20;87.70;;;;;;5137734;27;20171;-46
2021/12/18 08:59:23;;;;;;;15.10;11.80;;;6.20;87.50;;;;;;5136610;27;20243;-43
2021/12/18 09:01:48;;;;;;;13.83;11.13;;;6.20;87.40;;;;;;5137343;27;20236;-42
2021/12/18 09:04:14;;;;;;;16.13;12.37;;;6.20;87.40;;;;;;5137241;27;20350;-41
2021/12/18 09:06:40;;;;;;;13.97;11.13;;;6.30;87.40;;;;;;5137731;27;20496;-41
2021/12/18 09:09:06;;;;;;;14.13;10.17;;;6.30;87.30;;;;;;5136832;27;20287;-40
2021/12/18 09:11:32;;;;;;;14.80;10.97;;;6.30;87.90;;;;;;5137917;27;20222;-42
2021/12/18 09:13:58;;;;;;;13.50;10.30;;;6.30;87.20;;;;;;5119436;27;20435;-41
2021/12/18 09:16:24;;;;;;;15.10;12.03;;;6.40;87.20;;;;;;5138400;27;20433;-41
2021/12/18 09:18:50;;;;;;;14.90;11.60;;;6.40;87.00;;;;;;5137448;27;20628;-40
2021/12/18 09:21:16;;;;;;;15.30;11.20;;;6.40;87.00;;;;;;5120097;27;20409;-39
2021/12/18 09:23:41;;;;;;;14.23;11.33;;;6.40;87.00;;;;;;5137929;27;20232;-41
2021/12/18 09:26:07;;;;;;;15.27;11.80;;;6.40;86.90;;;;;;5121704;27;20502;-40
2021/12/18 09:28:33;;;;;;;13.63;11.03;;;6.50;87.00;;;;;;5120095;28;20463;-41
2021/12/18 09:30:58;;;;;;;14.13;10.97;;;6.50;87.00;;;;;;5137549;27;20542;-44
2021/12/18 09:33:24;;;;;;;17.20;12.33;;;6.60;87.00;;;;;;5136846;27;20268;-41
2021/12/18 09:35:52;;;;;;;15.20;11.90;;;6.60;86.90;;;;;;5137192;27;20548;-41
2021/12/18 09:38:19;;;;;;;18.03;12.43;;;6.70;86.90;;;;;;5118645;27;20244;-40
2021/12/18 09:40:45;;;;;;;18.13;12.77;;;6.70;86.80;;;;;;5118976;28;20409;-41
2021/12/18 09:43:11;;;;;;;16.40;11.70;;;6.80;86.70;;;;;;5136376;28;20435;-40
2021/12/18 09:45:37;;;;;;;16.00;12.73;;;6.80;86.40;;;;;;5136584;27;20575;-40
2021/12/18 09:48:05;;;;;;;15.33;11.60;;;6.80;87.00;;;;;;5118264;27;20214;-39
2021/12/18 09:50:34;;;;;;;14.53;11.67;;;6.80;86.20;;;;;;5101035;27;20431;-40
2021/12/18 09:53:02;;;;;;;16.07;12.70;;;6.90;86.20;;;;;;5117445;28;20544;-41
2021/12/18 09:55:28;;;;;;;15.10;12.50;;;6.90;86.10;;;;;;5118941;28;20417;-40
2021/12/18 09:57:54;;;;;;;14.20;11.60;;;6.90;86.00;;;;;;5136499;27;20485;-41
2021/12/18 10:00:23;;;;;;;15.90;12.37;;;7.00;86.00;;;;;;5116833;28;20171;-41
2021/12/18 10:02:49;;;;;;;15.57;12.00;;;7.00;85.80;;;;;;5133536;27;20199;-41
2021/12/18 10:05:30;;;;;;;14.93;12.80;;;7.00;85.60;;;;;;5134820;28;20417;-42
2021/12/18 10:08:09;;;;;;;16.30;12.90;;;7.10;85.30;;;;;;5116505;27;20853;-41
2021/12/18 10:10:35;;;;;;;14.47;11.90;;;7.10;85.10;;;;;;5134585;27;20428;-40
2021/12/18 10:13:04;;;;;;;15.60;12.30;;;7.10;85.00;;;;;;5135689;27;20464;-42
2021/12/18 10:15:29;;;;;;;14.73;11.47;;;7.10;84.90;;;;;;5136691;27;20523;-42
2021/12/18 10:18:10;;;;;;;16.20;11.90;;;7.10;85.40;;;;;;5137540;27;20527;-42
2021/12/18 10:20:37;;;;;;;15.03;12.13;;;7.20;84.70;;;;;;5102311;27;20552;-40
2021/12/18 10:23:05;;;;;;;12.03;10.70;;;7.20;84.60;;;;;;5102009;28;20436;-39
2021/12/18 10:25:40;;;;;;;16.50;12.43;;;7.20;84.40;;;;;;5137155;27;20433;-40
2021/12/18 10:28:29;;;;;;;14.20;11.63;;;7.20;84.30;;;;;;5135987;28;20393;-40
2021/12/18 10:30:57;;;;;;;14.53;11.33;;;7.20;84.20;;;;;;5119786;27;20445;-41
2021/12/18 10:33:42;;;;;;;12.80;11.00;;;7.30;84.10;;;;;;5138817;27;20456;-39
2021/12/18 10:36:14;;;;;;;14.40;12.20;;;7.30;84.00;;;;;;5119520;27;20764;-42
2021/12/18 10:38:52;;;;;;;13.93;12.30;;;7.30;84.00;;;;;;5122088;27;20467;-40
2021/12/18 10:41:34;;;;;;;14.67;11.53;;;7.30;83.90;;;;;;5140641;27;20518;-40
2021/12/18 10:44:10;;;;;;;15.73;12.20;;;7.30;83.80;;;;;;5139291;27;20509;-41
2021/12/18 10:46:38;;;;;;;11.97;10.47;;;7.40;83.90;;;;;;5140067;27;20408;-40
2021/12/18 10:49:05;;;;;;;15.70;12.73;;;7.40;83.80;;;;;;5139945;27;20857;-40
2021/12/18 10:51:32;;;;;;;13.97;12.07;;;7.50;83.70;;;;;;5140206;27;20480;-41
2021/12/18 10:54:08;;;;;;;14.33;11.80;;;7.50;83.50;;;;;;5139774;27;20488;-41
2021/12/18 10:56:39;;;;;;;13.03;11.60;;;7.50;83.20;;;;;;5140114;27;20413;-41
2021/12/18 10:59:20;;;;;;;13.90;12.30;;;7.60;83.00;;;;;;5139514;27;20733;-39
2021/12/18 11:01:54;;;;;;;13.07;11.67;;;7.60;82.80;;;;;;5139550;27;20409;-41
2021/12/18 11:04:28;;;;;;;14.60;12.43;;;7.70;82.70;;;;;;5119989;27;20444;-39
2021/12/18 11:06:55;;;;;;;13.97;12.47;;;7.70;82.40;;;;;;5100327;28;20708;-41
2021/12/18 11:09:33;;;;;;;16.73;13.00;;;7.80;82.20;;;;;;5130852;27;20789;-41
2021/12/18 11:14:32;;;;;;;14.30;12.80;;;7.80;81.80;;;;;;5138198;27;21000;-41
2021/12/18 11:16:59;;;;;;;15.63;12.83;;;7.90;81.60;;;;;;5138245;27;20409;-39
2021/12/18 11:19:28;;;;;;;14.27;12.77;;;7.90;81.40;;;;;;5138690;27;20421;-40
2021/12/18 11:21:56;;;;;;;17.30;15.50;;;8.00;81.30;;;;;;5121226;27;20413;-40
2021/12/18 11:24:33;;;;;;;15.00;13.50;;;8.00;81.10;;;;;;5139341;27;20484;-39
2021/12/18 11:27:05;;;;;;;14.83;13.33;;;8.10;81.00;;;;;;5139669;27;20708;-41
2021/12/18 11:29:55;;;;;;;16.20;14.60;;;8.10;80.70;;;;;;5138451;27;20456;-41
2021/12/18 11:32:24;;;;;;;16.93;15.17;;;8.20;80.40;;;;;;5137970;27;20473;-41
2021/12/18 11:34:54;;;;;;;17.57;15.53;;;8.20;79.90;;;;;;5137393;27;20412;-39
2021/12/18 11:37:22;;;;;;;17.00;15.20;;;8.30;79.60;;;;;;5136161;27;20429;-39
2021/12/18 11:39:49;;;;;;;15.47;13.83;;;8.30;78.90;;;;;;5137491;27;20871;-41
2021/12/18 11:42:17;;;;;;;17.70;14.00;;;8.30;78.70;;;;;;5137835;27;20484;-40
2021/12/18 11:44:54;;;;;;;14.90;12.47;;;8.40;78.50;;;;;;5120856;27;20424;-39
2021/12/18 11:47:58;;;;;;;14.00;12.50;;;8.40;78.20;;;;;;5139222;27;20428;-39
2021/12/18 11:50:32;;;;;;;13.00;11.70;;;8.50;77.90;;;;;;5129862;27;20734;-39
2021/12/18 11:53:08;;;;;;;14.30;12.10;;;8.60;77.60;;;;;;5120395;27;20452;-39
2021/12/18 11:55:49;;;;;;;13.10;10.97;;;8.70;77.20;;;;;;5139905;27;20735;-41
2021/12/18 11:58:28;;;;;;;13.70;11.90;;;8.80;77.00;;;;;;5138659;27;20500;-42
2021/12/18 12:01:02;;;;;;;14.33;11.87;;;8.90;76.80;;;;;;5139741;27;20405;-41
2021/12/18 12:03:50;;;;;;;12.40;10.90;;;8.90;77.00;;;;;;5139576;27;20443;-39
2021/12/18 12:06:19;;;;;;;15.90;12.17;;;9.00;76.20;;;;;;5137348;27;20415;-40
2021/12/18 12:08:49;;;;;;;12.63;10.50;;;9.00;75.90;;;;;;5136552;27;20413;-42
2021/12/18 12:11:15;;;;;;;13.07;11.30;;;9.00;75.70;;;;;;5134909;27;20416;-40
2021/12/18 12:13:59;;;;;;;12.23;10.87;;;9.10;75.60;;;;;;5134663;27;20450;-41
2021/12/18 12:16:46;;;;;;;12.07;10.83;;;9.10;75.20;;;;;;5135311;27;20386;-42
2021/12/18 12:19:35;;;;;;;11.70;9.70;;;9.20;75.10;;;;;;5136303;27;20747;-41
2021/12/18 12:22:03;;;;;;;14.13;12.13;;;9.20;74.80;;;;;;5136670;27;20457;-40
2021/12/18 12:24:32;;;;;;;12.97;11.57;;;9.20;74.70;;;;;;5117659;27;20483;-41
2021/12/18 12:27:38;;;;;;;13.37;11.40;;;9.20;74.60;;;;;;5118349;27;20448;-42
2021/12/18 12:30:32;;;;;;;12.37;10.50;;;9.20;74.60;;;;;;5073800;28;20917;-41
2021/12/18 12:33:03;;;;;;;12.60;11.30;;;9.20;74.40;;;;;;5074151;28;20480;-43
2021/12/18 12:35:29;;;;;;;11.70;10.40;;;9.30;74.40;;;;;;5100034;27;20462;-40
2021/12/18 12:37:55;;;;;;;11.77;10.17;;;9.30;74.40;;;;;;5136138;27;20459;-41
2021/12/18 12:40:32;;;;;;;12.60;10.27;;;9.30;74.40;;;;;;5136072;27;20401;-40
2021/12/18 12:43:15;;;;;;;11.67;10.10;;;9.20;74.10;;;;;;5136311;27;20421;-41
2021/12/18 12:45:43;;;;;;;12.27;10.57;;;9.20;73.90;;;;;;5136487;27;20532;-42
2021/12/18 12:48:09;;;;;;;10.90;9.30;;;9.20;74.60;;;;;;5117901;27;20435;-40
2021/12/18 12:50:38;;;;;;;11.00;9.70;;;9.20;73.90;;;;;;5137102;27;20419;-41
2021/12/18 12:53:06;;;;;;;10.83;9.73;;;9.20;73.90;;;;;;5137094;27;20498;-41
2021/12/18 12:55:49;;;;;;;11.37;10.17;;;9.20;73.90;;;;;;5136150;27;20424;-41
2021/12/18 12:58:23;;;;;;;11.77;10.30;;;9.20;73.80;;;;;;5136125;27;20467;-41
2021/12/18 13:01:00;;;;;;;10.60;9.50;;;9.20;73.70;;;;;;5118985;27;20449;-42
2021/12/18 13:03:46;;;;;;;12.10;10.10;;;9.10;73.50;;;;;;5100820;27;20527;-42
2021/12/18 13:06:18;;;;;;;10.93;9.73;;;9.10;73.50;;;;;;5121030;27;20502;-41
2021/12/18 13:08:46;;;;;;;11.50;10.30;;;9.10;73.60;;;;;;5118824;28;20831;-42
2021/12/18 13:11:21;;;;;;;12.17;10.77;;;9.10;73.50;;;;;;5102945;27;20412;-41
2021/12/18 13:13:48;;;;;;;10.73;9.53;;;9.10;73.60;;;;;;5119071;27;20865;-42
2021/12/18 13:16:16;;;;;;;10.30;9.30;;;9.10;73.50;;;;;;5117642;27;20520;-40
2021/12/18 13:18:54;;;;;;;13.43;11.80;;;9.10;73.50;;;;;;5137337;27;20458;-42
2021/12/18 13:21:31;;;;;;;12.40;11.07;;;9.10;73.30;;;;;;5137794;27;20420;-40
2021/12/18 13:24:03;;;;;;;12.80;10.93;;;9.10;72.90;;;;;;5133994;27;20940;-40
2021/12/18 13:26:35;;;;;;;12.93;10.33;;;9.10;72.90;;;;;;5109550;28;20893;-40
2021/12/18 13:29:06;;;;;;;12.73;11.33;;;9.00;72.70;;;;;;5127276;27;20474;-40
2021/12/18 13:31:36;;;;;;;13.20;11.63;;;9.00;72.70;;;;;;5123688;27;20904;-40